KLAF/LAF METAR and TAF weather

Enter ICAO airport designator
Station Type Date Time Source
KLAF METAR 2019/12/13 02:54 UTC NOAA

KLAF 130254Z AUTO 16007KT 10SM CLR 03/M04 A3014 RMK AO2 SLP210 T00281039 58019


Station Type Date Time Source
KLAF Decoded METAR 2019/12/13 02:54 UTC NOAA

LAFAYETTE PURDUE UNIV AIRPORT , IN, United States (KLAF) 40-25N 86-57W 182M
Dec 12, 2019 - 09:54 PM EST / 2019.12.13 0254 UTC
Wind: from the SSE (160 degrees) at 8 MPH (7 KT):0
Visibility: 10 mile(s):0
Sky conditions: clear
Temperature: 37.0 F (2.8 C)
Dew Point: 25.0 F (-3.9 C)
Relative Humidity: 61%
Pressure (altimeter): 30.14 in. Hg (1020 hPa)
Pressure tendency: 0.06 inches (1.9 hPa) lower than three hours ago
ob: KLAF 130254Z AUTO 16007KT 10SM CLR 03/M04 A3014 RMK AO2 SLP210 T00281039 58019
cycle: 3

Station Type Date Time Source
KLAF TAF 2019/12/12 18:22 UTC NOAA

TAF KLAF 121720Z 1218/1318 18011G23KT P6SM BKN250
FM122200 18010KT P6SM SCT250
FM130900 20006KT P6SM BKN250
FM131200 19006KT P6SM BKN120

Example: see airport list